Jacksonville, Indiana
Current Conditions -  °F | °C
As of 7:35 AM on Monday 24 Nov 2014 (Local Time) from KPRG Reporting Station
Overcast Overcast  
Wind Chill: 32°   Ceiling: 1200
Heat Index: 43°   Visibility: 10mi
Dew Point: 41°   Wind: 31mph
Humidity: 94%   Direction: 260°W
Pressure: 29.27"   Gusts: 39mph
Location:  39.6513°N, 87.4607°W
Report Text: KPRG 241235Z AUTO 26027G34KT 10SM BKN012 OVC017 06/05 A2927 RMK AO2 T00610052
Loading
Personal Weather Stations






























Interactive Weather Map New forecast layout! Learn more

10-Day Weather Forecast

Advertisements
Track Severe Weather on mobile